This demonstration page uses our WeatherBlox Daily Observations layout. Learn more.

39.29038, -76.61219

Hourly Observations for October 12, 2018

Temp ( °F °C ) Dew Point ( °F °C ) Humidity (%) Winds ( mph kmh ) Pressure ( in mb ) Visibility ( mi km ) Precip ( " mm )
12:54 am 00:54 undefined 71 21.7 64 17.8 79 79 undefined N/A 29.5 999 N/A 0 0
1:54 am 01:54 undefined 69 20.6 59 15 70 70 undefined N/A 29.52 1000 N/A 0 0
2:54 am 02:54 undefined 66 18.9 53 11.7 63 63 undefined N/A 29.53 1000 N/A 0 0
3:54 am 03:54 undefined 62 16.7 48 8.9 60 60 undefined N/A 29.59 1002 N/A 0 0
4:54 am 04:54 undefined 61 16.1 49 9.4 65 65 undefined N/A 29.64 1004 N/A 0 0
5:54 am 05:54 undefined 60 15.6 47 8.3 62 62 undefined N/A 29.67 1005 N/A 0 0
6:54 am 06:54 undefined 59 15 46 7.8 62 62 undefined N/A 29.7 1006 N/A 0 0
7:54 am 07:54 undefined 59 15 46 7.8 62 62 undefined N/A 29.74 1007 N/A 0 0
8:54 am 08:54 undefined 59 15 41 5 51 51 undefined N/A 29.78 1008 N/A 0 0
9:54 am 09:54 undefined 60 15.6 41 5 50 50 undefined N/A 29.8 1009 N/A 0 0
10:54 am 10:54 undefined 62 16.7 42 5.6 48 48 undefined N/A 29.8 1009 N/A 0 0
11:54 am 11:54 undefined 63 17.2 42 5.6 47 47 undefined N/A 29.81 1010 N/A 0 0
12:54 pm 12:54 undefined 64 17.8 42 5.6 45 45 undefined N/A 29.81 1010 N/A 0 0
1:54 pm 13:54 undefined 64 17.8 41 5 43 43 undefined N/A 29.79 1009 N/A 0 0
2:54 pm 14:54 undefined 64 17.8 40 4.4 41 41 undefined N/A 29.77 1008 N/A 0 0
3:54 pm 15:54 undefined 64 17.8 40 4.4 41 41 undefined N/A 29.76 1008 N/A 0 0
4:54 pm 16:54 undefined 62 16.7 41 5 46 46 undefined N/A 29.74 1007 N/A 0 0
5:54 pm 17:54 undefined 61 16.1 40 4.4 46 46 undefined N/A 29.78 1008 N/A 0 0
6:54 pm 18:54 undefined 60 15.6 40 4.4 47 47 undefined N/A 29.8 1009 N/A 0 0
7:54 pm 19:54 undefined 59 15 40 4.4 49 49 undefined N/A 29.82 1010 N/A 0 0
8:54 pm 20:54 undefined 58 14.4 40 4.4 51 51 undefined N/A 29.83 1010 N/A 0 0
9:54 pm 21:54 undefined 56 13.3 40 4.4 55 55 undefined N/A 29.83 1010 N/A 0 0
10:54 pm 22:54 undefined 56 13.3 41 5 57 57 undefined N/A 29.84 1011 N/A 0 0
11:54 pm 23:54 undefined 55 12.8 40 4.4 57 57 undefined N/A 29.83 1010 N/A 0 0

Powered by AerisWeather